sensor_id;sensor_type;location;lat;lon;timestamp;P1;durP1;ratioP1;P2;durP2;ratioP2
30289;SDS011;17105;55.652;37.710;2023-01-08T00:00:27;16.98;;;6.57;;
30289;SDS011;17105;55.652;37.710;2023-01-08T00:01:05;17.27;;;6.13;;
30289;SDS011;17105;55.652;37.710;2023-01-08T00:01:40;15.48;;;6.05;;
30289;SDS011;17105;55.652;37.710;2023-01-08T00:02:15;24.25;;;7.20;;
30289;SDS011;17105;55.652;37.710;2023-01-08T00:02:49;20.83;;;6.45;;
30289;SDS011;17105;55.652;37.710;2023-01-08T00:03:26;20.02;;;6.68;;
30289;SDS011;17105;55.652;37.710;2023-01-08T00:04:01;20.05;;;6.95;;
30289;SDS011;17105;55.652;37.710;2023-01-08T00:04:36;19.58;;;7.05;;
30289;SDS011;17105;55.652;37.710;2023-01-08T00:05:10;19.38;;;6.97;;
30289;SDS011;17105;55.652;37.710;2023-01-08T00:05:44;20.40;;;6.55;;
30289;SDS011;17105;55.652;37.710;2023-01-08T00:06:17;17.67;;;6.47;;
30289;SDS011;17105;55.652;37.710;2023-01-08T00:06:53;17.10;;;6.72;;
30289;SDS011;17105;55.652;37.710;2023-01-08T00:07:26;19.25;;;6.95;;
30289;SDS011;17105;55.652;37.710;2023-01-08T00:08:00;20.80;;;6.85;;
30289;SDS011;17105;55.652;37.710;2023-01-08T00:08:35;19.65;;;6.55;;
30289;SDS011;17105;55.652;37.710;2023-01-08T00:09:09;18.95;;;6.60;;
30289;SDS011;17105;55.652;37.710;2023-01-08T00:09:43;17.40;;;6.78;;
30289;SDS011;17105;55.652;37.710;2023-01-08T00:10:22;19.38;;;6.47;;
30289;SDS011;17105;55.652;37.710;2023-01-08T00:10:56;16.02;;;6.38;;
30289;SDS011;17105;55.652;37.710;2023-01-08T00:11:31;20.45;;;7.15;;
30289;SDS011;17105;55.652;37.710;2023-01-08T00:12:06;16.67;;;6.47;;
30289;SDS011;17105;55.652;37.710;2023-01-08T00:12:41;18.13;;;7.18;;
30289;SDS011;17105;55.652;37.710;2023-01-08T00:13:18;19.42;;;6.50;;
30289;SDS011;17105;55.652;37.710;2023-01-08T00:13:51;22.70;;;6.97;;
30289;SDS011;17105;55.652;37.710;2023-01-08T00:14:26;18.65;;;6.82;;
30289;SDS011;17105;55.652;37.710;2023-01-08T00:15:03;20.73;;;7.28;;
30289;SDS011;17105;55.652;37.710;2023-01-08T00:15:39;17.85;;;6.40;;
30289;SDS011;17105;55.652;37.710;2023-01-08T00:16:14;20.92;;;6.50;;
30289;SDS011;17105;55.652;37.710;2023-01-08T00:16:49;16.77;;;6.50;;
30289;SDS011;17105;55.652;37.710;2023-01-08T00:17:23;18.83;;;6.47;;
30289;SDS011;17105;55.652;37.710;2023-01-08T00:18:00;21.00;;;6.68;;
30289;SDS011;17105;55.652;37.710;2023-01-08T00:18:38;21.17;;;6.32;;
30289;SDS011;17105;55.652;37.710;2023-01-08T00:19:13;16.92;;;5.75;;
30289;SDS011;17105;55.652;37.710;2023-01-08T00:19:48;18.58;;;6.22;;
30289;SDS011;17105;55.652;37.710;2023-01-08T00:20:22;15.23;;;5.57;;
30289;SDS011;17105;55.652;37.710;2023-01-08T00:20:56;18.27;;;5.70;;
30289;SDS011;17105;55.652;37.710;2023-01-08T00:21:31;20.17;;;7.60;;
30289;SDS011;17105;55.652;37.710;2023-01-08T00:22:05;22.17;;;6.60;;
30289;SDS011;17105;55.652;37.710;2023-01-08T00:22:40;19.52;;;6.28;;
30289;SDS011;17105;55.652;37.710;2023-01-08T00:23:15;16.08;;;5.90;;
30289;SDS011;17105;55.652;37.710;2023-01-08T00:23:51;16.17;;;6.20;;
30289;SDS011;17105;55.652;37.710;2023-01-08T00:24:25;16.48;;;6.30;;
30289;SDS011;17105;55.652;37.710;2023-01-08T00:24:59;17.45;;;6.15;;
30289;SDS011;17105;55.652;37.710;2023-01-08T00:25:33;16.60;;;5.95;;
30289;SDS011;17105;55.652;37.710;2023-01-08T00:26:09;17.60;;;6.60;;
30289;SDS011;17105;55.652;37.710;2023-01-08T00:26:43;17.92;;;6.70;;
30289;SDS011;17105;55.652;37.710;2023-01-08T00:27:18;17.25;;;6.68;;
30289;SDS011;17105;55.652;37.710;2023-01-08T00:27:53;13.55;;;5.68;;
30289;SDS011;17105;55.652;37.710;2023-01-08T00:28:27;16.15;;;5.97;;
30289;SDS011;17105;55.652;37.710;2023-01-08T00:29:01;16.33;;;6.15;;
30289;SDS011;17105;55.652;37.710;2023-01-08T00:29:35;16.52;;;6.38;;
30289;SDS011;17105;55.652;37.710;2023-01-08T00:30:10;14.88;;;6.07;;
30289;SDS011;17105;55.652;37.710;2023-01-08T00:30:45;18.77;;;5.75;;
30289;SDS011;17105;55.652;37.710;2023-01-08T00:31:20;21.02;;;6.28;;
30289;SDS011;17105;55.652;37.710;2023-01-08T00:31:54;16.35;;;5.93;;
30289;SDS011;17105;55.652;37.710;2023-01-08T00:32:29;18.85;;;5.97;;
30289;SDS011;17105;55.652;37.710;2023-01-08T00:33:04;19.65;;;6.22;;
30289;SDS011;17105;55.652;37.710;2023-01-08T00:33:39;18.55;;;6.32;;
30289;SDS011;17105;55.652;37.710;2023-01-08T00:34:13;15.25;;;5.93;;
30289;SDS011;17105;55.652;37.710;2023-01-08T00:34:47;14.68;;;6.05;;
30289;SDS011;17105;55.652;37.710;2023-01-08T00:35:22;19.10;;;6.82;;
30289;SDS011;17105;55.652;37.710;2023-01-08T00:35:56;17.42;;;5.97;;
30289;SDS011;17105;55.652;37.710;2023-01-08T00:36:30;20.83;;;6.05;;
30289;SDS011;17105;55.652;37.710;2023-01-08T00:37:04;19.75;;;6.38;;
30289;SDS011;17105;55.652;37.710;2023-01-08T00:37:37;15.38;;;6.25;;
30289;SDS011;17105;55.652;37.710;2023-01-08T00:38:13;18.17;;;5.68;;
30289;SDS011;17105;55.652;37.710;2023-01-08T00:38:46;16.85;;;6.32;;
30289;SDS011;17105;55.652;37.710;2023-01-08T00:39:22;19.42;;;6.65;;
30289;SDS011;17105;55.652;37.710;2023-01-08T00:39:57;19.17;;;6.22;;
30289;SDS011;17105;55.652;37.710;2023-01-08T00:40:33;19.67;;;5.63;;
30289;SDS011;17105;55.652;37.710;2023-01-08T00:41:08;19.85;;;5.90;;
30289;SDS011;17105;55.652;37.710;2023-01-08T00:41:45;18.25;;;5.78;;
30289;SDS011;17105;55.652;37.710;2023-01-08T00:42:19;17.70;;;6.10;;
30289;SDS011;17105;55.652;37.710;2023-01-08T00:42:54;20.25;;;6.50;;
30289;SDS011;17105;55.652;37.710;2023-01-08T00:43:29;18.73;;;6.60;;
30289;SDS011;17105;55.652;37.710;2023-01-08T00:44:03;21.13;;;6.47;;
30289;SDS011;17105;55.652;37.710;2023-01-08T00:44:38;16.95;;;5.97;;
30289;SDS011;17105;55.652;37.710;2023-01-08T00:45:13;17.63;;;5.97;;
30289;SDS011;17105;55.652;37.710;2023-01-08T00:45:48;19.38;;;5.78;;
30289;SDS011;17105;55.652;37.710;2023-01-08T00:46:23;16.17;;;6.65;;
30289;SDS011;17105;55.652;37.710;2023-01-08T00:46:59;20.17;;;6.38;;
30289;SDS011;17105;55.652;37.710;2023-01-08T00:47:33;16.10;;;5.38;;
30289;SDS011;17105;55.652;37.710;2023-01-08T00:48:08;16.75;;;6.00;;
30289;SDS011;17105;55.652;37.710;2023-01-08T00:48:42;18.67;;;5.78;;
30289;SDS011;17105;55.652;37.710;2023-01-08T00:49:16;15.50;;;5.97;;
30289;SDS011;17105;55.652;37.710;2023-01-08T00:49:48;18.92;;;6.07;;
30289;SDS011;17105;55.652;37.710;2023-01-08T00:50:23;16.13;;;6.18;;
30289;SDS011;17105;55.652;37.710;2023-01-08T00:50:57;16.23;;;6.03;;
30289;SDS011;17105;55.652;37.710;2023-01-08T00:51:33;16.88;;;6.18;;
30289;SDS011;17105;55.652;37.710;2023-01-08T00:52:09;20.67;;;6.93;;
30289;SDS011;17105;55.652;37.710;2023-01-08T00:52:44;13.90;;;5.68;;
30289;SDS011;17105;55.652;37.710;2023-01-08T00:53:18;15.05;;;6.00;;
30289;SDS011;17105;55.652;37.710;2023-01-08T00:53:54;20.05;;;7.18;;
30289;SDS011;17105;55.652;37.710;2023-01-08T00:54:29;17.45;;;6.13;;
30289;SDS011;17105;55.652;37.710;2023-01-08T00:55:04;17.33;;;6.38;;
30289;SDS011;17105;55.652;37.710;2023-01-08T00:55:41;17.60;;;6.15;;
30289;SDS011;17105;55.652;37.710;2023-01-08T00:56:14;18.20;;;5.85;;
30289;SDS011;17105;55.652;37.710;2023-01-08T00:56:51;15.48;;;6.45;;
30289;SDS011;17105;55.652;37.710;2023-01-08T00:57:31;18.52;;;6.50;;
30289;SDS011;17105;55.652;37.710;2023-01-08T00:58:06;14.85;;;5.95;;
30289;SDS011;17105;55.652;37.710;2023-01-08T00:58:42;15.40;;;6.07;;
30289;SDS011;17105;55.652;37.710;2023-01-08T00:59:16;15.88;;;5.85;;
30289;SDS011;17105;55.652;37.710;2023-01-08T00:59:49;18.27;;;6.38;;
30289;SDS011;17105;55.652;37.710;2023-01-08T01:00:24;17.45;;;6.15;;
30289;SDS011;17105;55.652;37.710;2023-01-08T01:00:56;15.75;;;5.78;;
30289;SDS011;17105;55.652;37.710;2023-01-08T01:01:31;16.75;;;5.78;;
30289;SDS011;17105;55.652;37.710;2023-01-08T01:02:06;17.75;;;5.90;;
30289;SDS011;17105;55.652;37.710;2023-01-08T01:02:40;18.70;;;5.55;;
30289;SDS011;17105;55.652;37.710;2023-01-08T01:03:13;19.65;;;5.65;;
30289;SDS011;17105;55.652;37.710;2023-01-08T01:03:48;17.80;;;6.00;;
30289;SDS011;17105;55.652;37.710;2023-01-08T01:04:21;17.55;;;5.72;;
30289;SDS011;17105;55.652;37.710;2023-01-08T01:04:56;15.63;;;6.10;;
30289;SDS011;17105;55.652;37.710;2023-01-08T01:05:30;16.45;;;6.38;;
30289;SDS011;17105;55.652;37.710;2023-01-08T01:06:06;17.02;;;5.97;;
30289;SDS011;17105;55.652;37.710;2023-01-08T01:06:39;14.90;;;5.85;;
30289;SDS011;17105;55.652;37.710;2023-01-08T01:07:14;15.10;;;6.13;;
30289;SDS011;17105;55.652;37.710;2023-01-08T01:07:49;16.65;;;5.75;;
30289;SDS011;17105;55.652;37.710;2023-01-08T01:08:27;16.52;;;5.80;;
30289;SDS011;17105;55.652;37.710;2023-01-08T01:09:03;16.40;;;5.57;;
30289;SDS011;17105;55.652;37.710;2023-01-08T01:09:37;16.80;;;5.07;;
30289;SDS011;17105;55.652;37.710;2023-01-08T01:10:13;15.63;;;5.82;;
30289;SDS011;17105;55.652;37.710;2023-01-08T01:10:49;16.70;;;5.57;;
30289;SDS011;17105;55.652;37.710;2023-01-08T01:11:24;17.63;;;5.93;;
30289;SDS011;17105;55.652;37.710;2023-01-08T01:12:00;17.70;;;5.85;;
30289;SDS011;17105;55.652;37.710;2023-01-08T01:12:35;14.20;;;5.20;;
30289;SDS011;17105;55.652;37.710;2023-01-08T01:13:11;14.15;;;5.00;;
30289;SDS011;17105;55.652;37.710;2023-01-08T01:13:47;13.20;;;5.25;;
30289;SDS011;17105;55.652;37.710;2023-01-08T01:14:21;17.88;;;6.25;;
30289;SDS011;17105;55.652;37.710;2023-01-08T01:14:55;18.83;;;5.95;;
30289;SDS011;17105;55.652;37.710;2023-01-08T01:15:30;15.55;;;5.60;;
30289;SDS011;17105;55.652;37.710;2023-01-08T01:16:03;18.55;;;6.18;;
30289;SDS011;17105;55.652;37.710;2023-01-08T01:16:38;13.73;;;5.05;;
30289;SDS011;17105;55.652;37.710;2023-01-08T01:17:14;17.55;;;5.70;;
30289;SDS011;17105;55.652;37.710;2023-01-08T01:17:47;17.55;;;6.15;;
30289;SDS011;17105;55.652;37.710;2023-01-08T01:18:20;15.52;;;5.93;;
30289;SDS011;17105;55.652;37.710;2023-01-08T01:18:56;13.73;;;5.60;;
30289;SDS011;17105;55.652;37.710;2023-01-08T01:19:30;19.30;;;5.45;;
30289;SDS011;17105;55.652;37.710;2023-01-08T01:20:05;17.35;;;6.03;;
30289;SDS011;17105;55.652;37.710;2023-01-08T01:20:41;18.33;;;5.65;;
30289;SDS011;17105;55.652;37.710;2023-01-08T01:21:16;18.42;;;5.75;;
30289;SDS011;17105;55.652;37.710;2023-01-08T01:21:56;18.55;;;6.13;;
30289;SDS011;17105;55.652;37.710;2023-01-08T01:22:31;16.48;;;5.90;;
30289;SDS011;17105;55.652;37.710;2023-01-08T01:23:05;15.23;;;5.28;;
30289;SDS011;17105;55.652;37.710;2023-01-08T01:23:42;13.98;;;5.45;;
30289;SDS011;17105;55.652;37.710;2023-01-08T01:24:17;16.38;;;5.80;;
30289;SDS011;17105;55.652;37.710;2023-01-08T01:24:49;14.63;;;5.47;;
30289;SDS011;17105;55.652;37.710;2023-01-08T01:25:25;20.67;;;6.10;;
30289;SDS011;17105;55.652;37.710;2023-01-08T01:25:58;14.45;;;5.70;;
30289;SDS011;17105;55.652;37.710;2023-01-08T01:26:33;15.95;;;6.13;;
30289;SDS011;17105;55.652;37.710;2023-01-08T01:27:09;14.82;;;5.47;;
30289;SDS011;17105;55.652;37.710;2023-01-08T01:27:43;16.75;;;5.57;;
30289;SDS011;17105;55.652;37.710;2023-01-08T01:28:19;16.52;;;5.30;;
30289;SDS011;17105;55.652;37.710;2023-01-08T01:28:53;14.82;;;5.38;;
30289;SDS011;17105;55.652;37.710;2023-01-08T01:29:28;14.27;;;5.68;;
30289;SDS011;17105;55.652;37.710;2023-01-08T01:30:02;14.25;;;5.03;;
30289;SDS011;17105;55.652;37.710;2023-01-08T01:30:37;14.88;;;5.78;;
30289;SDS011;17105;55.652;37.710;2023-01-08T01:31:13;14.32;;;5.55;;
30289;SDS011;17105;55.652;37.710;2023-01-08T01:31:46;14.82;;;5.47;;
30289;SDS011;17105;55.652;37.710;2023-01-08T01:32:22;12.57;;;5.10;;
30289;SDS011;17105;55.652;37.710;2023-01-08T01:32:56;12.98;;;5.45;;
30289;SDS011;17105;55.652;37.710;2023-01-08T01:33:31;16.63;;;6.00;;
30289;SDS011;17105;55.652;37.710;2023-01-08T01:34:07;11.15;;;5.00;;
30289;SDS011;17105;55.652;37.710;2023-01-08T01:34:41;16.60;;;5.45;;
30289;SDS011;17105;55.652;37.710;2023-01-08T01:35:16;13.35;;;5.43;;
30289;SDS011;17105;55.652;37.710;2023-01-08T01:35:58;14.45;;;5.38;;
30289;SDS011;17105;55.652;37.710;2023-01-08T01:36:32;15.00;;;5.20;;
30289;SDS011;17105;55.652;37.710;2023-01-08T01:37:08;17.65;;;6.18;;
30289;SDS011;17105;55.652;37.710;2023-01-08T01:37:44;14.18;;;5.57;;
30289;SDS011;17105;55.652;37.710;2023-01-08T01:38:18;12.82;;;5.07;;
30289;SDS011;17105;55.652;37.710;2023-01-08T01:38:53;16.50;;;5.22;;
30289;SDS011;17105;55.652;37.710;2023-01-08T01:39:28;14.90;;;5.28;;
30289;SDS011;17105;55.652;37.710;2023-01-08T01:40:02;17.85;;;4.90;;
30289;SDS011;17105;55.652;37.710;2023-01-08T01:40:40;20.52;;;5.72;;
30289;SDS011;17105;55.652;37.710;2023-01-08T01:41:17;14.43;;;5.28;;
30289;SDS011;17105;55.652;37.710;2023-01-08T01:41:53;13.40;;;5.50;;
30289;SDS011;17105;55.652;37.710;2023-01-08T01:42:27;14.43;;;5.20;;
30289;SDS011;17105;55.652;37.710;2023-01-08T01:44:36;17.98;;;5.60;;
30289;SDS011;17105;55.652;37.710;2023-01-08T01:45:16;17.05;;;5.55;;
30289;SDS011;17105;55.652;37.710;2023-01-08T01:45:53;16.05;;;5.20;;
30289;SDS011;17105;55.652;37.710;2023-01-08T01:46:31;18.70;;;6.00;;
30289;SDS011;17105;55.652;37.710;2023-01-08T01:47:11;17.70;;;5.47;;
30289;SDS011;17105;55.652;37.710;2023-01-08T01:47:52;13.55;;;5.15;;
30289;SDS011;17105;55.652;37.710;2023-01-08T01:48:29;17.17;;;5.65;;
30289;SDS011;17105;55.652;37.710;2023-01-08T01:49:05;16.30;;;5.65;;
30289;SDS011;17105;55.652;37.710;2023-01-08T01:49:42;16.10;;;5.15;;
30289;SDS011;17105;55.652;37.710;2023-01-08T01:50:59;19.88;;;5.63;;
30289;SDS011;17105;55.652;37.710;2023-01-08T01:51:33;14.80;;;4.80;;
30289;SDS011;17105;55.652;37.710;2023-01-08T01:52:09;15.30;;;5.70;;
30289;SDS011;17105;55.652;37.710;2023-01-08T01:52:45;14.70;;;5.95;;
30289;SDS011;17105;55.652;37.710;2023-01-08T01:53:22;17.83;;;5.40;;
30289;SDS011;17105;55.652;37.710;2023-01-08T01:54:00;19.13;;;5.50;;
30289;SDS011;17105;55.652;37.710;2023-01-08T01:54:36;13.40;;;4.78;;
30289;SDS011;17105;55.652;37.710;2023-01-08T01:55:10;17.55;;;5.30;;
30289;SDS011;17105;55.652;37.710;2023-01-08T01:55:47;16.90;;;5.70;;
30289;SDS011;17105;55.652;37.710;2023-01-08T01:56:21;14.90;;;5.60;;
30289;SDS011;17105;55.652;37.710;2023-01-08T01:56:54;13.75;;;5.15;;
30289;SDS011;17105;55.652;37.710;2023-01-08T01:57:31;14.27;;;5.50;;
30289;SDS011;17105;55.652;37.710;2023-01-08T01:58:07;14.38;;;5.43;;
30289;SDS011;17105;55.652;37.710;2023-01-08T01:58:44;14.45;;;5.72;;
30289;SDS011;17105;55.652;37.710;2023-01-08T01:59:19;15.73;;;6.03;;
30289;SDS011;17105;55.652;37.710;2023-01-08T01:59:54;14.15;;;5.05;;
30289;SDS011;17105;55.652;37.710;2023-01-08T02:00:30;14.15;;;5.22;;
30289;SDS011;17105;55.652;37.710;2023-01-08T02:01:07;14.52;;;5.38;;
30289;SDS011;17105;55.652;37.710;2023-01-08T02:01:42;14.38;;;5.25;;
30289;SDS011;17105;55.652;37.710;2023-01-08T02:02:15;13.80;;;5.00;;
30289;SDS011;17105;55.652;37.710;2023-01-08T02:02:53;14.52;;;5.15;;
30289;SDS011;17105;55.652;37.710;2023-01-08T02:03:29;16.90;;;5.55;;
30289;SDS011;17105;55.652;37.710;2023-01-08T02:04:05;14.88;;;4.80;;
30289;SDS011;17105;55.652;37.710;2023-01-08T02:04:41;14.80;;;5.40;;
30289;SDS011;17105;55.652;37.710;2023-01-08T02:05:16;11.95;;;4.82;;
30289;SDS011;17105;55.652;37.710;2023-01-08T02:05:52;13.07;;;4.65;;
30289;SDS011;17105;55.652;37.710;2023-01-08T02:06:34;14.50;;;4.72;;
30289;SDS011;17105;55.652;37.710;2023-01-08T02:07:14;14.23;;;4.95;;
30289;SDS011;17105;55.652;37.710;2023-01-08T02:07:55;13.20;;;5.18;;
30289;SDS011;17105;55.652;37.710;2023-01-08T02:08:35;13.40;;;4.43;;
30289;SDS011;17105;55.652;37.710;2023-01-08T02:09:20;14.52;;;4.78;;
30289;SDS011;17105;55.652;37.710;2023-01-08T02:10:03;13.38;;;4.80;;
30289;SDS011;17105;55.652;37.710;2023-01-08T02:10:46;16.10;;;4.70;;
30289;SDS011;17105;55.652;37.710;2023-01-08T02:11:25;11.85;;;4.38;;
30289;SDS011;17105;55.652;37.710;2023-01-08T02:12:04;14.20;;;4.38;;
30289;SDS011;17105;55.652;37.710;2023-01-08T02:12:49;17.55;;;4.97;;
30289;SDS011;17105;55.652;37.710;2023-01-08T02:13:28;10.45;;;3.78;;
30289;SDS011;17105;55.652;37.710;2023-01-08T02:14:07;13.40;;;4.40;;
30289;SDS011;17105;55.652;37.710;2023-01-08T02:14:48;10.35;;;3.85;;
30289;SDS011;17105;55.652;37.710;2023-01-08T02:15:37;13.02;;;4.90;;
30289;SDS011;17105;55.652;37.710;2023-01-08T02:16:20;17.40;;;4.90;;
30289;SDS011;17105;55.652;37.710;2023-01-08T02:17:02;12.45;;;4.70;;
30289;SDS011;17105;55.652;37.710;2023-01-08T02:17:42;13.82;;;5.03;;
30289;SDS011;17105;55.652;37.710;2023-01-08T02:18:22;12.13;;;5.00;;
30289;SDS011;17105;55.652;37.710;2023-01-08T02:19:04;12.88;;;4.65;;
30289;SDS011;17105;55.652;37.710;2023-01-08T02:19:47;14.52;;;4.20;;
30289;SDS011;17105;55.652;37.710;2023-01-08T02:20:45;12.40;;;4.03;;
30289;SDS011;17105;55.652;37.710;2023-01-08T02:21:24;13.95;;;4.47;;
30289;SDS011;17105;55.652;37.710;2023-01-08T02:22:14;11.00;;;4.28;;
30289;SDS011;17105;55.652;37.710;2023-01-08T02:23:05;11.50;;;4.47;;
30289;SDS011;17105;55.652;37.710;2023-01-08T02:23:52;13.75;;;4.60;;
30289;SDS011;17105;55.652;37.710;2023-01-08T02:24:37;12.18;;;4.53;;
30289;SDS011;17105;55.652;37.710;2023-01-08T02:25:21;11.00;;;3.97;;
30289;SDS011;17105;55.652;37.710;2023-01-08T02:26:59;13.20;;;4.40;;
30289;SDS011;17105;55.652;37.710;2023-01-08T02:27:35;13.60;;;5.03;;
30289;SDS011;17105;55.652;37.710;2023-01-08T02:28:11;10.18;;;4.20;;
30289;SDS011;17105;55.652;37.710;2023-01-08T02:28:50;11.85;;;4.47;;
30289;SDS011;17105;55.652;37.710;2023-01-08T02:29:27;13.80;;;4.95;;
30289;SDS011;17105;55.652;37.710;2023-01-08T02:30:02;14.15;;;4.45;;
30289;SDS011;17105;55.652;37.710;2023-01-08T02:30:39;14.98;;;4.75;;
30289;SDS011;17105;55.652;37.710;2023-01-08T02:31:13;12.32;;;4.60;;
30289;SDS011;17105;55.652;37.710;2023-01-08T02:31:50;11.82;;;3.92;;
30289;SDS011;17105;55.652;37.710;2023-01-08T02:32:25;13.25;;;4.70;;
30289;SDS011;17105;55.652;37.710;2023-01-08T02:33:04;9.77;;;4.10;;
30289;SDS011;17105;55.652;37.710;2023-01-08T02:33:38;14.60;;;4.85;;
30289;SDS011;17105;55.652;37.710;2023-01-08T02:34:13;15.00;;;5.32;;
30289;SDS011;17105;55.652;37.710;2023-01-08T02:34:47;12.57;;;4.50;;
30289;SDS011;17105;55.652;37.710;2023-01-08T02:35:22;11.95;;;4.47;;
30289;SDS011;17105;55.652;37.710;2023-01-08T02:36:21;13.20;;;4.28;;
30289;SDS011;17105;55.652;37.710;2023-01-08T02:37:02;14.65;;;4.80;;
30289;SDS011;17105;55.652;37.710;2023-01-08T02:37:37;14.30;;;4.40;;
30289;SDS011;17105;55.652;37.710;2023-01-08T02:38:12;12.27;;;4.70;;
30289;SDS011;17105;55.652;37.710;2023-01-08T02:38:49;13.75;;;4.75;;
30289;SDS011;17105;55.652;37.710;2023-01-08T02:39:38;13.68;;;4.60;;
30289;SDS011;17105;55.652;37.710;2023-01-08T02:40:41;11.68;;;4.00;;
30289;SDS011;17105;55.652;37.710;2023-01-08T02:41:24;15.65;;;4.85;;
30289;SDS011;17105;55.652;37.710;2023-01-08T02:42:11;13.40;;;4.47;;
30289;SDS011;17105;55.652;37.710;2023-01-08T02:42:54;12.23;;;4.30;;
30289;SDS011;17105;55.652;37.710;2023-01-08T02:43:35;12.95;;;3.97;;
30289;SDS011;17105;55.652;37.710;2023-01-08T02:44:16;13.85;;;4.60;;
30289;SDS011;17105;55.652;37.710;2023-01-08T02:44:55;13.98;;;3.78;;
30289;SDS011;17105;55.652;37.710;2023-01-08T02:45:35;8.82;;;3.42;;
30289;SDS011;17105;55.652;37.710;2023-01-08T02:46:16;15.57;;;4.13;;
30289;SDS011;17105;55.652;37.710;2023-01-08T02:46:54;15.38;;;4.70;;
30289;SDS011;17105;55.652;37.710;2023-01-08T02:47:31;13.48;;;4.95;;
30289;SDS011;17105;55.652;37.710;2023-01-08T02:48:09;12.32;;;3.97;;
30289;SDS011;17105;55.652;37.710;2023-01-08T02:48:48;12.88;;;4.50;;
30289;SDS011;17105;55.652;37.710;2023-01-08T02:49:25;13.32;;;4.38;;
30289;SDS011;17105;55.652;37.710;2023-01-08T02:50:07;13.23;;;4.25;;
30289;SDS011;17105;55.652;37.710;2023-01-08T02:51:21;13.88;;;4.25;;
30289;SDS011;17105;55.652;37.710;2023-01-08T02:52:01;16.17;;;4.45;;
30289;SDS011;17105;55.652;37.710;2023-01-08T02:52:39;12.50;;;4.25;;
30289;SDS011;17105;55.652;37.710;2023-01-08T02:53:21;11.65;;;4.00;;
30289;SDS011;17105;55.652;37.710;2023-01-08T02:53:57;14.32;;;4.85;;
30289;SDS011;17105;55.652;37.710;2023-01-08T02:54:35;13.02;;;4.93;;
30289;SDS011;17105;55.652;37.710;2023-01-08T02:55:10;12.25;;;4.18;;
30289;SDS011;17105;55.652;37.710;2023-01-08T02:55:45;14.45;;;5.15;;
30289;SDS011;17105;55.652;37.710;2023-01-08T02:56:26;14.88;;;4.43;;
30289;SDS011;17105;55.652;37.710;2023-01-08T02:57:03;12.48;;;4.30;;
30289;SDS011;17105;55.652;37.710;2023-01-08T02:57:42;12.65;;;4.60;;
30289;SDS011;17105;55.652;37.710;2023-01-08T02:58:17;17.65;;;5.22;;
30289;SDS011;17105;55.652;37.710;2023-01-08T02:58:53;11.43;;;4.35;;
30289;SDS011;17105;55.652;37.710;2023-01-08T02:59:30;14.32;;;4.85;;
30289;SDS011;17105;55.652;37.710;2023-01-08T03:00:06;13.65;;;4.88;;
30289;SDS011;17105;55.652;37.710;2023-01-08T03:00:42;13.57;;;4.68;;
30289;SDS011;17105;55.652;37.710;2023-01-08T03:01:19;11.90;;;4.47;;
30289;SDS011;17105;55.652;37.710;2023-01-08T03:01:56;16.92;;;4.80;;
30289;SDS011;17105;55.652;37.710;2023-01-08T03:02:31;14.45;;;4.35;;
30289;SDS011;17105;55.652;37.710;2023-01-08T03:03:08;12.88;;;4.82;;
30289;SDS011;17105;55.652;37.710;2023-01-08T03:03:55;12.38;;;4.05;;
30289;SDS011;17105;55.652;37.710;2023-01-08T03:04:33;12.88;;;4.10;;
30289;SDS011;17105;55.652;37.710;2023-01-08T03:05:13;12.20;;;4.30;;
30289;SDS011;17105;55.652;37.710;2023-01-08T03:05:54;12.77;;;4.53;;
30289;SDS011;17105;55.652;37.710;2023-01-08T03:06:35;17.95;;;4.85;;
30289;SDS011;17105;55.652;37.710;2023-01-08T03:07:10;14.88;;;4.63;;
30289;SDS011;17105;55.652;37.710;2023-01-08T03:07:44;21.15;;;5.15;;
30289;SDS011;17105;55.652;37.710;2023-01-08T03:08:19;15.20;;;5.22;;
30289;SDS011;17105;55.652;37.710;2023-01-08T03:08:56;19.23;;;5.22;;
30289;SDS011;17105;55.652;37.710;2023-01-08T03:09:32;12.82;;;4.95;;
30289;SDS011;17105;55.652;37.710;2023-01-08T03:10:06;18.23;;;5.10;;
30289;SDS011;17105;55.652;37.710;2023-01-08T03:10:42;12.52;;;4.72;;
30289;SDS011;17105;55.652;37.710;2023-01-08T03:11:22;16.80;;;5.40;;
30289;SDS011;17105;55.652;37.710;2023-01-08T03:12:02;14.27;;;4.57;;
30289;SDS011;17105;55.652;37.710;2023-01-08T03:12:43;16.33;;;4.95;;
30289;SDS011;17105;55.652;37.710;2023-01-08T03:14:01;14.40;;;4.75;;
30289;SDS011;17105;55.652;37.710;2023-01-08T03:14:40;17.17;;;5.32;;
30289;SDS011;17105;55.652;37.710;2023-01-08T03:15:20;13.63;;;5.03;;
30289;SDS011;17105;55.652;37.710;2023-01-08T03:16:04;14.13;;;4.25;;
30289;SDS011;17105;55.652;37.710;2023-01-08T03:16:43;15.82;;;4.20;;
30289;SDS011;17105;55.652;37.710;2023-01-08T03:17:21;13.10;;;4.80;;
30289;SDS011;17105;55.652;37.710;2023-01-08T03:18:00;12.95;;;4.35;;
30289;SDS011;17105;55.652;37.710;2023-01-08T03:18:40;13.73;;;4.10;;
30289;SDS011;17105;55.652;37.710;2023-01-08T03:19:18;13.20;;;4.32;;
30289;SDS011;17105;55.652;37.710;2023-01-08T03:19:56;10.05;;;4.38;;
30289;SDS011;17105;55.652;37.710;2023-01-08T03:20:33;12.70;;;4.43;;
30289;SDS011;17105;55.652;37.710;2023-01-08T03:21:10;13.40;;;4.82;;
30289;SDS011;17105;55.652;37.710;2023-01-08T03:21:45;11.20;;;4.30;;
30289;SDS011;17105;55.652;37.710;2023-01-08T03:22:19;10.35;;;4.38;;
30289;SDS011;17105;55.652;37.710;2023-01-08T03:22:56;9.95;;;3.72;;
30289;SDS011;17105;55.652;37.710;2023-01-08T03:23:32;14.05;;;4.82;;
30289;SDS011;17105;55.652;37.710;2023-01-08T03:24:10;15.75;;;4.15;;
30289;SDS011;17105;55.652;37.710;2023-01-08T03:24:47;11.68;;;3.97;;
30289;SDS011;17105;55.652;37.710;2023-01-08T03:25:23;11.32;;;4.05;;
30289;SDS011;17105;55.652;37.710;2023-01-08T03:26:01;12.20;;;4.22;;
30289;SDS011;17105;55.652;37.710;2023-01-08T03:26:37;12.07;;;4.55;;
30289;SDS011;17105;55.652;37.710;2023-01-08T03:27:15;11.95;;;4.28;;
30289;SDS011;17105;55.652;37.710;2023-01-08T03:27:53;14.57;;;4.50;;
30289;SDS011;17105;55.652;37.710;2023-01-08T03:28:29;12.25;;;4.03;;
30289;SDS011;17105;55.652;37.710;2023-01-08T03:29:09;11.20;;;4.75;;
30289;SDS011;17105;55.652;37.710;2023-01-08T03:29:46;15.02;;;4.57;;
30289;SDS011;17105;55.652;37.710;2023-01-08T03:30:24;10.80;;;3.83;;
30289;SDS011;17105;55.652;37.710;2023-01-08T03:31:00;15.65;;;3.70;;
30289;SDS011;17105;55.652;37.710;2023-01-08T03:31:35;12.80;;;4.88;;
30289;SDS011;17105;55.652;37.710;2023-01-08T03:32:10;9.88;;;3.78;;
30289;SDS011;17105;55.652;37.710;2023-01-08T03:32:49;9.82;;;4.22;;
30289;SDS011;17105;55.652;37.710;2023-01-08T03:33:26;12.55;;;4.22;;
30289;SDS011;17105;55.652;37.710;2023-01-08T03:34:03;12.27;;;4.20;;
30289;SDS011;17105;55.652;37.710;2023-01-08T03:34:39;13.23;;;4.45;;
30289;SDS011;17105;55.652;37.710;2023-01-08T03:35:17;11.30;;;4.00;;
30289;SDS011;17105;55.652;37.710;2023-01-08T03:35:53;14.02;;;5.00;;
30289;SDS011;17105;55.652;37.710;2023-01-08T03:36:32;12.55;;;4.70;;
30289;SDS011;17105;55.652;37.710;2023-01-08T03:37:10;11.48;;;3.78;;
30289;SDS011;17105;55.652;37.710;2023-01-08T03:37:48;13.75;;;4.15;;
30289;SDS011;17105;55.652;37.710;2023-01-08T03:38:28;13.95;;;4.35;;
30289;SDS011;17105;55.652;37.710;2023-01-08T03:39:06;11.43;;;3.92;;
30289;SDS011;17105;55.652;37.710;2023-01-08T03:39:43;13.35;;;4.32;;